createdAt,value
2022-08-05T00:01:27.816Z,17.42
2022-08-05T00:04:14.131Z,17.33
2022-08-05T00:06:59.331Z,15.88
2022-08-05T00:09:44.077Z,16.52
2022-08-05T00:12:29.033Z,16.20
2022-08-05T00:15:55.273Z,16.98
2022-08-05T00:18:22.701Z,16.40
2022-08-05T00:21:08.399Z,15.48
2022-08-05T00:24:10.100Z,15.43
2022-08-05T00:26:56.378Z,15.43
2022-08-05T00:29:41.227Z,15.98
2022-08-05T00:32:26.152Z,15.30
2022-08-05T00:35:11.234Z,15.60
2022-08-05T00:37:56.252Z,16.38
2022-08-05T00:40:53.303Z,15.75
2022-08-05T00:43:47.018Z,15.00
2022-08-05T00:46:42.657Z,16.15
2022-08-05T00:49:28.226Z,16.05
2022-08-05T00:52:18.703Z,16.23
2022-08-05T00:55:13.365Z,15.27
2022-08-05T00:58:00.184Z,15.70
2022-08-05T01:00:46.741Z,14.90
2022-08-05T01:03:34.057Z,15.18
2022-08-05T01:06:19.137Z,16.10
2022-08-05T01:09:05.602Z,15.70
2022-08-05T01:11:55.521Z,15.63
2022-08-05T01:14:48.164Z,16.52
2022-08-05T01:17:53.672Z,16.73
2022-08-05T01:20:59.677Z,15.90
2022-08-05T01:24:02.262Z,15.75
2022-08-05T01:27:50.614Z,15.93
2022-08-05T01:30:50.668Z,16.02
2022-08-05T01:33:53.665Z,15.73
2022-08-05T01:36:47.017Z,14.77
2022-08-05T01:39:47.543Z,16.80
2022-08-05T01:42:36.071Z,16.20
2022-08-05T01:45:23.715Z,16.38
2022-08-05T01:48:11.858Z,17.73
2022-08-05T01:51:00.154Z,16.50
2022-08-05T01:53:59.107Z,16.08
2022-08-05T01:58:09.365Z,16.23
2022-08-05T01:59:59.316Z,16.08
2022-08-05T02:03:16.354Z,14.20
2022-08-05T02:06:37.619Z,15.40
2022-08-05T02:09:20.651Z,15.40
2022-08-05T02:12:12.012Z,16.63
2022-08-05T02:15:03.180Z,14.75
2022-08-05T02:18:31.228Z,15.75
2022-08-05T02:21:04.326Z,15.60
2022-08-05T02:23:54.839Z,15.23
2022-08-05T02:26:54.694Z,15.18
2022-08-05T02:29:58.921Z,16.73
2022-08-05T02:32:51.911Z,17.30
2022-08-05T02:35:49.894Z,16.13
2022-08-05T02:38:45.085Z,15.65
2022-08-05T02:41:57.678Z,16.00
2022-08-05T02:44:46.257Z,16.90
2022-08-05T02:47:58.332Z,17.15
2022-08-05T02:50:46.035Z,16.75
2022-08-05T02:53:38.991Z,18.15
2022-08-05T02:56:26.727Z,16.55
2022-08-05T02:59:12.113Z,18.63
2022-08-05T03:02:00.170Z,17.23
2022-08-05T03:04:46.561Z,17.63
2022-08-05T03:08:06.583Z,17.10
2022-08-05T03:11:53.271Z,17.35
2022-08-05T03:14:03.399Z,15.95
2022-08-05T03:16:49.343Z,16.40
2022-08-05T03:19:38.330Z,14.63
2022-08-05T03:22:32.469Z,15.93
2022-08-05T03:25:32.659Z,15.15
2022-08-05T03:28:19.875Z,16.02
2022-08-05T03:31:05.413Z,14.77
2022-08-05T03:33:53.190Z,14.02
2022-08-05T03:36:37.964Z,13.82
2022-08-05T03:39:26.997Z,13.88
2022-08-05T03:42:12.216Z,13.82
2022-08-05T03:44:57.179Z,14.55
2022-08-05T03:47:42.267Z,14.65
2022-08-05T03:50:59.274Z,12.93
2022-08-05T03:55:52.394Z,13.25
2022-08-05T03:57:42.370Z,13.57
2022-08-05T04:00:30.916Z,13.57
2022-08-05T04:03:28.174Z,12.85
2022-08-05T04:06:14.970Z,13.48
2022-08-05T04:09:01.871Z,12.70
2022-08-05T04:11:47.329Z,12.57
2022-08-05T04:14:36.083Z,12.15
2022-08-05T04:17:21.473Z,12.63
2022-08-05T04:20:06.662Z,12.10
2022-08-05T04:22:56.070Z,12.80
2022-08-05T04:25:58.000Z,12.25
2022-08-05T04:28:51.371Z,12.57
2022-08-05T04:31:38.521Z,11.80
2022-08-05T04:34:32.512Z,12.00
2022-08-05T04:37:19.425Z,11.45
2022-08-05T04:40:05.165Z,11.32
2022-08-05T04:42:50.269Z,11.80
2022-08-05T04:45:48.155Z,11.10
2022-08-05T04:48:33.773Z,11.02
2022-08-05T04:51:19.419Z,11.35
2022-08-05T04:54:07.922Z,10.75
2022-08-05T04:56:58.935Z,10.63
2022-08-05T04:59:44.857Z,11.10
2022-08-05T05:02:37.254Z,10.93
2022-08-05T05:05:28.301Z,10.88
2022-08-05T05:08:26.475Z,11.02
2022-08-05T05:11:15.280Z,11.07
2022-08-05T05:14:02.759Z,11.38
2022-08-05T05:16:47.447Z,11.65
2022-08-05T05:19:36.466Z,10.38
2022-08-05T05:22:26.019Z,12.43
2022-08-05T05:25:17.086Z,11.80
2022-08-05T05:28:02.772Z,11.88
2022-08-05T05:30:49.821Z,10.93
2022-08-05T05:33:58.699Z,11.57
2022-08-05T05:36:39.486Z,11.30
2022-08-05T05:39:24.564Z,11.75
2022-08-05T05:42:16.757Z,11.35
2022-08-05T05:45:06.890Z,11.10
2022-08-05T05:48:06.660Z,10.98
2022-08-05T05:50:52.505Z,10.70
2022-08-05T05:53:45.975Z,11.10
2022-08-05T05:56:39.506Z,11.15
2022-08-05T05:59:24.898Z,11.15
2022-08-05T06:02:13.880Z,11.35
2022-08-05T06:04:59.559Z,10.88
2022-08-05T06:07:57.600Z,10.48
2022-08-05T06:10:52.367Z,10.05
2022-08-05T06:13:40.915Z,10.88
2022-08-05T06:16:39.243Z,10.07
2022-08-05T06:19:34.215Z,11.10
2022-08-05T06:22:26.042Z,9.98
2022-08-05T06:25:59.302Z,10.98
2022-08-05T06:28:21.103Z,10.93
2022-08-05T06:31:11.249Z,9.38
2022-08-05T06:34:06.826Z,9.30
2022-08-05T06:36:57.004Z,9.65
2022-08-05T06:39:43.349Z,9.20
2022-08-05T06:42:29.267Z,8.85
2022-08-05T06:45:21.165Z,9.27
2022-08-05T06:48:46.945Z,9.00
2022-08-05T06:51:23.914Z,8.60
2022-08-05T06:54:18.127Z,9.32
2022-08-05T06:57:56.724Z,9.57
2022-08-05T07:00:09.999Z,8.85
2022-08-05T07:02:55.481Z,8.57
2022-08-05T07:05:41.006Z,9.18
2022-08-05T07:08:28.211Z,9.55
2022-08-05T07:11:15.355Z,9.48
2022-08-05T07:14:20.420Z,9.15
2022-08-05T07:18:00.417Z,8.63
2022-08-05T07:20:37.179Z,8.52
2022-08-05T07:23:26.489Z,8.15
2022-08-05T07:26:17.294Z,8.73
2022-08-05T07:29:08.513Z,8.65
2022-08-05T07:31:55.399Z,7.95
2022-08-05T07:34:42.326Z,7.88
2022-08-05T07:37:28.990Z,7.03
2022-08-05T07:40:31.731Z,7.18
2022-08-05T07:43:20.885Z,7.35
2022-08-05T07:46:06.237Z,8.18
2022-08-05T07:49:09.446Z,8.02
2022-08-05T07:51:55.185Z,7.50
2022-08-05T07:54:41.225Z,7.40
2022-08-05T07:57:42.708Z,8.40
2022-08-05T08:00:37.603Z,8.23
2022-08-05T08:03:22.613Z,7.35
2022-08-05T08:06:07.601Z,7.38
2022-08-05T08:08:55.256Z,7.03
2022-08-05T08:11:47.782Z,7.53
2022-08-05T08:14:40.842Z,6.45
2022-08-05T08:17:26.214Z,6.35
2022-08-05T08:20:43.360Z,7.15
2022-08-05T08:24:02.264Z,6.63
2022-08-05T08:26:26.875Z,6.40
2022-08-05T08:29:45.522Z,6.80
2022-08-05T08:32:28.165Z,7.07
2022-08-05T08:35:13.708Z,7.13
2022-08-05T08:37:58.624Z,6.93
2022-08-05T08:40:51.499Z,6.63
2022-08-05T08:45:18.096Z,6.82
2022-08-05T08:46:44.095Z,7.20
2022-08-05T08:50:23.139Z,7.00
2022-08-05T08:52:41.665Z,6.88
2022-08-05T08:56:02.650Z,7.25
2022-08-05T08:58:44.403Z,7.15
2022-08-05T09:01:33.690Z,7.18
2022-08-05T09:04:18.631Z,6.88
2022-08-05T09:07:19.393Z,6.32
2022-08-05T09:10:13.160Z,6.40
2022-08-05T09:13:05.218Z,6.40
2022-08-05T09:15:51.295Z,6.13
2022-08-05T09:18:40.051Z,6.35
2022-08-05T09:22:23.367Z,6.10
2022-08-05T09:24:37.128Z,6.55
2022-08-05T09:28:04.024Z,6.03
2022-08-05T09:30:43.545Z,6.40
2022-08-05T09:33:35.366Z,6.60
2022-08-05T09:36:21.088Z,6.30
2022-08-05T09:39:18.144Z,6.68
2022-08-05T09:42:07.875Z,6.07
2022-08-05T09:44:56.166Z,6.80
2022-08-05T09:47:55.699Z,6.72
2022-08-05T09:50:44.704Z,7.05
2022-08-05T09:53:54.516Z,7.07
2022-08-05T09:56:51.761Z,6.90
2022-08-05T09:59:37.402Z,7.18
2022-08-05T10:02:34.002Z,6.55
2022-08-05T10:05:21.291Z,6.28
2022-08-05T10:08:36.660Z,6.72
2022-08-05T10:11:16.639Z,6.25
2022-08-05T10:14:24.221Z,7.47
2022-08-05T10:17:39.747Z,7.28
2022-08-05T10:20:20.080Z,7.25
2022-08-05T10:23:08.925Z,7.57
2022-08-05T10:26:14.885Z,6.90
2022-08-05T10:29:00.457Z,7.90
2022-08-05T10:32:55.633Z,7.60
2022-08-05T10:34:50.754Z,7.88
2022-08-05T10:37:40.461Z,7.07
2022-08-05T10:40:44.936Z,7.00
2022-08-05T10:43:36.343Z,7.03
2022-08-05T10:46:23.744Z,6.88
2022-08-05T10:49:10.442Z,7.53
2022-08-05T10:52:02.484Z,7.38
2022-08-05T10:55:09.470Z,5.88
2022-08-05T10:58:11.693Z,6.60
2022-08-05T11:01:04.343Z,6.88
2022-08-05T11:04:22.306Z,5.72
2022-08-05T11:07:14.892Z,6.38
2022-08-05T11:10:04.035Z,5.65
2022-08-05T11:12:56.499Z,6.32
2022-08-05T11:15:59.201Z,5.40
2022-08-05T11:18:47.063Z,5.72
2022-08-05T11:21:32.170Z,6.65
2022-08-05T11:24:33.731Z,6.68
2022-08-05T11:27:45.833Z,6.65
2022-08-05T11:30:55.326Z,6.82
2022-08-05T11:33:48.121Z,6.30
2022-08-05T11:36:46.480Z,6.20
2022-08-05T11:39:49.507Z,6.22
2022-08-05T11:42:45.534Z,5.75
2022-08-05T11:46:15.633Z,6.38
2022-08-05T11:48:36.143Z,6.25
2022-08-05T11:51:44.424Z,6.82
2022-08-05T11:54:34.502Z,22.05
2022-08-05T11:57:24.859Z,8.27
2022-08-05T12:00:30.721Z,7.65
2022-08-05T12:03:29.328Z,7.80
2022-08-05T12:06:22.856Z,7.75
2022-08-05T12:09:07.826Z,7.82
2022-08-05T12:12:07.609Z,7.75
2022-08-05T12:14:55.864Z,6.68
2022-08-05T12:18:03.978Z,6.90
2022-08-05T12:20:47.781Z,6.65
2022-08-05T12:23:32.853Z,6.13
2022-08-05T12:26:17.844Z,6.50
2022-08-05T12:29:09.433Z,6.65
2022-08-05T12:32:01.721Z,6.75
2022-08-05T12:34:47.122Z,6.85
2022-08-05T12:37:35.123Z,6.55
2022-08-05T12:40:29.643Z,6.53
2022-08-05T12:43:20.614Z,6.25
2022-08-05T12:46:06.226Z,6.70
2022-08-05T12:49:13.608Z,6.82
2022-08-05T12:52:12.789Z,5.97
2022-08-05T12:55:26.302Z,6.05
2022-08-05T12:58:38.748Z,5.68
2022-08-05T13:02:03.367Z,6.18
2022-08-05T13:04:52.525Z,5.60
2022-08-05T13:07:59.310Z,5.35
2022-08-05T13:10:50.316Z,5.60
2022-08-05T13:14:04.929Z,5.30
2022-08-05T13:16:50.084Z,4.88
2022-08-05T13:19:51.018Z,5.75
2022-08-05T13:22:46.062Z,5.20
2022-08-05T13:25:52.267Z,5.28
2022-08-05T13:28:40.921Z,5.10
2022-08-05T13:32:02.837Z,5.00
2022-08-05T13:34:33.973Z,4.90
2022-08-05T13:37:34.545Z,5.13
2022-08-05T13:40:36.941Z,4.65
2022-08-05T13:43:44.016Z,4.40
2022-08-05T13:46:37.962Z,4.80
2022-08-05T13:49:36.557Z,5.03
2022-08-05T13:52:29.070Z,4.85
2022-08-05T13:55:14.388Z,4.88
2022-08-05T13:58:30.176Z,4.38
2022-08-05T14:01:16.433Z,4.90
2022-08-05T14:04:19.782Z,4.60
2022-08-05T14:07:24.932Z,4.78
2022-08-05T14:10:19.036Z,5.50
2022-08-05T14:13:13.203Z,5.03
2022-08-05T14:16:07.597Z,4.68
2022-08-05T14:18:55.998Z,4.78
2022-08-05T14:22:09.558Z,5.20
2022-08-05T14:24:46.711Z,5.05
2022-08-05T14:27:32.616Z,4.70
2022-08-05T14:30:20.407Z,4.90
2022-08-05T14:33:09.014Z,4.30
2022-08-05T14:36:02.172Z,4.50
2022-08-05T14:38:46.922Z,4.47
2022-08-05T14:41:32.570Z,4.80
2022-08-05T14:44:20.563Z,4.70
2022-08-05T14:47:07.000Z,4.55
2022-08-05T14:49:59.569Z,5.10
2022-08-05T14:52:57.773Z,5.65
2022-08-05T14:55:44.125Z,5.75
2022-08-05T14:58:37.116Z,5.20
2022-08-05T15:01:47.201Z,5.30
2022-08-05T15:04:29.127Z,5.07
2022-08-05T15:08:10.836Z,5.57
2022-08-05T15:10:19.315Z,4.70
2022-08-05T15:13:13.853Z,5.00
2022-08-05T15:15:59.311Z,5.32
2022-08-05T15:18:43.956Z,5.43
2022-08-05T15:21:32.422Z,5.15
2022-08-05T15:24:20.476Z,5.32
2022-08-05T15:27:09.099Z,5.63
2022-08-05T15:29:56.829Z,5.18
2022-08-05T15:32:41.962Z,5.28
2022-08-05T15:35:27.534Z,5.80
2022-08-05T15:38:35.329Z,5.57
2022-08-05T15:41:24.477Z,5.28
2022-08-05T15:44:09.884Z,5.40
2022-08-05T15:46:55.662Z,7.00
2022-08-05T15:49:56.778Z,9.32
2022-08-05T15:52:52.963Z,6.57
2022-08-05T15:56:01.832Z,5.95
2022-08-05T15:58:48.587Z,5.72
2022-08-05T16:01:39.739Z,6.20
2022-08-05T16:04:36.852Z,5.90
2022-08-05T16:07:24.240Z,6.07
2022-08-05T16:10:14.262Z,5.90
2022-08-05T16:12:59.932Z,6.47
2022-08-05T16:15:44.805Z,6.35
2022-08-05T16:18:32.538Z,6.50
2022-08-05T16:21:17.290Z,5.97
2022-08-05T16:24:03.737Z,5.65
2022-08-05T16:26:51.264Z,6.18
2022-08-05T16:29:37.974Z,5.80
2022-08-05T16:32:28.332Z,6.43
2022-08-05T16:35:14.081Z,6.40
2022-08-05T16:38:16.455Z,6.43
2022-08-05T16:42:12.373Z,7.43
2022-08-05T16:44:14.034Z,8.30
2022-08-05T16:46:59.335Z,7.25
2022-08-05T16:49:44.178Z,6.28
2022-08-05T16:52:32.625Z,6.50
2022-08-05T16:55:18.470Z,6.88
2022-08-05T16:58:08.706Z,7.53
2022-08-05T17:00:53.743Z,6.50
2022-08-05T17:03:40.274Z,7.47
2022-08-05T17:06:25.667Z,6.75
2022-08-05T17:09:10.553Z,7.00
2022-08-05T17:11:59.732Z,7.07
2022-08-05T17:14:44.898Z,7.38
2022-08-05T17:17:42.674Z,7.50
2022-08-05T17:20:28.464Z,7.68
2022-08-05T17:24:03.726Z,7.45
2022-08-05T17:26:18.544Z,7.82
2022-08-05T17:29:07.483Z,7.35
2022-08-05T17:31:59.031Z,8.13
2022-08-05T17:34:49.246Z,7.57
2022-08-05T17:37:41.450Z,7.88
2022-08-05T17:40:30.356Z,7.72
2022-08-05T17:43:16.311Z,8.45
2022-08-05T17:46:02.994Z,8.80
2022-08-05T17:48:49.377Z,9.32
2022-08-05T17:51:40.584Z,10.75
2022-08-05T17:54:25.816Z,10.15
2022-08-05T17:57:12.183Z,10.07
2022-08-05T18:00:05.086Z,9.68
2022-08-05T18:02:50.699Z,9.85
2022-08-05T18:05:36.243Z,9.73
2022-08-05T18:08:21.261Z,8.82
2022-08-05T18:11:06.380Z,9.10
2022-08-05T18:13:52.018Z,8.20
2022-08-05T18:16:47.038Z,8.40
2022-08-05T18:19:36.825Z,8.25
2022-08-05T18:22:36.493Z,9.02
2022-08-05T18:25:34.257Z,8.50
2022-08-05T18:28:21.823Z,8.45
2022-08-05T18:31:07.439Z,8.70
2022-08-05T18:33:54.339Z,9.63
2022-08-05T18:36:43.642Z,9.32
2022-08-05T18:40:30.993Z,8.90
2022-08-05T18:42:33.349Z,8.00
2022-08-05T18:45:18.512Z,8.55
2022-08-05T18:48:05.367Z,8.93
2022-08-05T18:52:06.204Z,9.38
2022-08-05T18:54:20.300Z,9.50
2022-08-05T18:57:06.159Z,9.35
2022-08-05T19:00:02.156Z,9.43
2022-08-05T19:02:51.130Z,8.68
2022-08-05T19:06:12.266Z,9.93
2022-08-05T19:08:41.948Z,10.25
2022-08-05T19:11:28.417Z,8.13
2022-08-05T19:14:44.923Z,9.68
2022-08-05T19:17:33.770Z,10.20
2022-08-05T19:20:32.561Z,10.50
2022-08-05T19:24:03.726Z,10.43
2022-08-05T19:26:23.453Z,10.25
2022-08-05T19:29:10.601Z,10.30
2022-08-05T19:31:56.109Z,11.20
2022-08-05T19:34:54.319Z,11.20
2022-08-05T19:38:04.729Z,11.00
2022-08-05T19:40:46.716Z,11.73
2022-08-05T19:44:05.912Z,11.45
2022-08-05T19:46:39.441Z,10.98
2022-08-05T19:49:24.439Z,10.65
2022-08-05T19:52:30.611Z,11.43
2022-08-05T19:56:15.133Z,11.00
2022-08-05T19:58:29.309Z,11.50
2022-08-05T20:01:14.954Z,10.35
2022-08-05T20:04:01.273Z,11.38
2022-08-05T20:06:48.183Z,11.23
2022-08-05T20:09:55.062Z,12.40
2022-08-05T20:12:38.295Z,11.90
2022-08-05T20:15:50.804Z,11.15
2022-08-05T20:18:36.718Z,10.98
2022-08-05T20:21:22.321Z,11.85
2022-08-05T20:24:07.423Z,12.25
2022-08-05T20:26:56.374Z,12.13
2022-08-05T20:29:41.729Z,12.70
2022-08-05T20:32:37.498Z,11.45
2022-08-05T20:35:31.451Z,11.63
2022-08-05T20:38:22.603Z,11.77
2022-08-05T20:41:11.860Z,12.35
2022-08-05T20:44:17.195Z,12.25
2022-08-05T20:47:07.403Z,12.20
2022-08-05T20:49:52.507Z,11.43
2022-08-05T20:52:38.599Z,12.68
2022-08-05T20:55:56.310Z,13.00
2022-08-05T20:58:31.439Z,12.23
2022-08-05T21:01:16.786Z,13.13
2022-08-05T21:04:01.623Z,12.63
2022-08-05T21:06:46.687Z,13.32
2022-08-05T21:09:31.467Z,12.20
2022-08-05T21:12:19.286Z,12.60
2022-08-05T21:15:04.800Z,11.85
2022-08-05T21:17:52.309Z,12.15
2022-08-05T21:20:37.548Z,12.15
2022-08-05T21:23:24.824Z,12.80
2022-08-05T21:26:14.334Z,12.07
2022-08-05T21:29:03.871Z,12.50
2022-08-05T21:31:50.282Z,13.48
2022-08-05T21:34:36.268Z,11.90
2022-08-05T21:37:21.036Z,12.43
2022-08-05T21:40:06.661Z,13.50
2022-08-05T21:42:59.218Z,13.13
2022-08-05T21:45:56.500Z,14.20
2022-08-05T21:48:42.550Z,12.70
2022-08-05T21:52:21.457Z,12.25
2022-08-05T21:54:33.058Z,12.48
2022-08-05T21:57:34.038Z,12.52
2022-08-05T22:00:19.424Z,12.27
2022-08-05T22:03:04.262Z,12.80
2022-08-05T22:05:49.414Z,13.38
2022-08-05T22:08:34.378Z,12.85
2022-08-05T22:11:34.407Z,12.90
2022-08-05T22:14:35.707Z,12.50
2022-08-05T22:17:23.512Z,13.85
2022-08-05T22:20:14.690Z,12.15
2022-08-05T22:23:21.299Z,13.02
2022-08-05T22:26:24.864Z,13.15
2022-08-05T22:29:09.664Z,12.43
2022-08-05T22:31:55.371Z,12.32
2022-08-05T22:34:47.884Z,12.85
2022-08-05T22:37:58.515Z,13.80
2022-08-05T22:40:38.406Z,13.00
2022-08-05T22:43:36.839Z,12.90
2022-08-05T22:46:23.252Z,13.38
2022-08-05T22:50:17.673Z,13.60
2022-08-05T22:52:30.549Z,13.95
2022-08-05T22:58:28.477Z,13.95
2022-08-05T23:01:13.795Z,14.43
2022-08-05T23:03:59.731Z,12.90
2022-08-05T23:06:44.808Z,13.73
2022-08-05T23:09:57.758Z,14.30
2022-08-05T23:12:37.591Z,13.82
2022-08-05T23:15:29.344Z,13.88
2022-08-05T23:18:16.121Z,13.20
2022-08-05T23:21:01.287Z,12.40
2022-08-05T23:23:48.187Z,13.27
2022-08-05T23:26:33.235Z,13.40
2022-08-05T23:29:18.188Z,12.52
2022-08-05T23:32:05.028Z,14.35
2022-08-05T23:34:50.884Z,13.77
2022-08-05T23:37:36.539Z,13.20
2022-08-05T23:40:27.268Z,14.20
2022-08-05T23:43:24.950Z,14.10
2022-08-05T23:46:21.010Z,13.55
2022-08-05T23:49:16.217Z,14.55
2022-08-05T23:52:20.664Z,15.40
2022-08-05T23:55:09.072Z,14.23
2022-08-05T23:57:53.906Z,14.65
